createdAt,value
2022-11-27T00:01:26.268Z,27.83
2022-11-27T00:03:55.257Z,30.00
2022-11-27T00:06:24.671Z,25.80
2022-11-27T00:08:51.757Z,25.33
2022-11-27T00:11:21.519Z,28.70
2022-11-27T00:13:48.677Z,30.55
2022-11-27T00:16:16.319Z,30.33
2022-11-27T00:18:46.496Z,25.25
2022-11-27T00:21:22.151Z,27.73
2022-11-27T00:23:49.528Z,31.02
2022-11-27T00:26:16.437Z,30.13
2022-11-27T00:28:43.337Z,26.90
2022-11-27T00:31:19.581Z,29.88
2022-11-27T00:33:46.833Z,28.77
2022-11-27T00:36:14.664Z,23.65
2022-11-27T00:38:41.928Z,29.65
2022-11-27T00:41:19.664Z,29.75
2022-11-27T00:43:46.792Z,34.53
2022-11-27T00:46:14.975Z,31.55
2022-11-27T00:48:41.956Z,32.13
2022-11-27T00:51:12.370Z,31.02
2022-11-27T00:53:39.332Z,31.02
2022-11-27T00:56:06.669Z,32.80
2022-11-27T00:58:33.374Z,31.50
2022-11-27T01:01:06.026Z,30.48
2022-11-27T01:03:33.961Z,31.67
2022-11-27T01:06:12.228Z,33.67
2022-11-27T01:08:39.228Z,32.60
2022-11-27T01:11:08.344Z,36.35
2022-11-27T01:13:38.612Z,43.10
2022-11-27T01:16:26.461Z,45.95
2022-11-27T01:18:55.645Z,48.50
2022-11-27T01:21:22.447Z,50.35
2022-11-27T01:23:49.935Z,63.75
2022-11-27T01:26:22.332Z,61.30
2022-11-27T01:28:54.687Z,68.65
2022-11-27T01:31:26.481Z,61.58
2022-11-27T01:33:55.192Z,66.85
2022-11-27T01:36:24.111Z,64.38
2022-11-27T01:38:51.348Z,87.15
2022-11-27T01:41:23.734Z,80.22
2022-11-27T01:43:59.358Z,81.65
2022-11-27T01:46:39.791Z,81.28
2022-11-27T01:49:18.277Z,71.40
2022-11-27T01:51:50.290Z,72.50
2022-11-27T01:54:18.297Z,81.95
2022-11-27T01:56:48.546Z,73.45
2022-11-27T01:59:17.201Z,75.68
2022-11-27T02:01:44.055Z,80.78
2022-11-27T02:04:10.909Z,70.30
2022-11-27T02:06:37.553Z,89.63
2022-11-27T02:09:04.410Z,80.75
2022-11-27T02:11:42.871Z,87.95
2022-11-27T02:14:18.461Z,96.25
2022-11-27T02:17:09.860Z,83.75
2022-11-27T02:19:53.999Z,97.07
2022-11-27T02:25:28.123Z,95.60
2022-11-27T02:28:28.393Z,107.38
2022-11-27T02:31:05.803Z,101.88
2022-11-27T02:33:37.511Z,108.47
2022-11-27T02:36:11.675Z,125.68
2022-11-27T02:38:49.903Z,104.32
2022-11-27T02:41:24.821Z,94.38
2022-11-27T02:43:53.191Z,87.00
2022-11-27T02:46:20.803Z,102.30
2022-11-27T02:48:56.727Z,112.00
2022-11-27T02:51:39.102Z,116.80
2022-11-27T02:54:12.325Z,95.72
2022-11-27T02:56:40.834Z,94.82
2022-11-27T02:59:11.362Z,81.35
2022-11-27T03:01:43.537Z,82.30
2022-11-27T03:04:18.056Z,89.00
2022-11-27T03:06:49.270Z,123.07
2022-11-27T03:09:27.799Z,93.65
2022-11-27T03:11:57.087Z,133.07
2022-11-27T03:14:24.752Z,106.47
2022-11-27T03:17:11.567Z,90.15
2022-11-27T03:20:07.024Z,76.72
2022-11-27T03:22:33.842Z,78.57
2022-11-27T03:25:00.482Z,85.00
2022-11-27T03:27:32.532Z,87.43
2022-11-27T03:30:01.409Z,96.82
2022-11-27T03:32:30.199Z,82.55
2022-11-27T03:35:00.005Z,86.15
2022-11-27T03:37:29.316Z,73.03
2022-11-27T03:39:56.123Z,87.65
2022-11-27T03:42:59.259Z,94.28
2022-11-27T03:45:38.881Z,63.38
2022-11-27T03:48:20.707Z,65.72
2022-11-27T03:51:19.626Z,64.78
2022-11-27T03:53:53.476Z,78.15
2022-11-27T03:59:03.490Z,56.60
2022-11-27T04:01:32.732Z,67.22
2022-11-27T04:03:59.476Z,53.78
2022-11-27T04:06:26.182Z,46.78
2022-11-27T04:08:55.053Z,57.75
2022-11-27T04:11:21.723Z,56.47
2022-11-27T04:13:48.435Z,73.10
2022-11-27T04:16:17.657Z,59.60
2022-11-27T04:18:44.510Z,55.17
2022-11-27T04:21:13.391Z,76.30
2022-11-27T04:23:40.821Z,49.00
2022-11-27T04:26:09.725Z,53.10
2022-11-27T04:28:39.959Z,60.25
2022-11-27T04:31:06.657Z,58.63
2022-11-27T04:33:33.469Z,50.78
2022-11-27T04:36:02.282Z,45.67
2022-11-27T04:38:28.997Z,61.55
2022-11-27T04:40:58.361Z,64.80
2022-11-27T04:43:27.465Z,53.05
2022-11-27T04:45:54.086Z,79.43
2022-11-27T04:48:20.755Z,75.45
2022-11-27T04:50:47.372Z,87.93
2022-11-27T04:53:14.024Z,69.40
2022-11-27T04:55:41.172Z,61.40
2022-11-27T04:58:07.867Z,74.13
2022-11-27T05:00:34.561Z,77.75
2022-11-27T05:03:01.321Z,73.63
2022-11-27T05:05:28.133Z,59.03
2022-11-27T05:07:54.861Z,68.95
2022-11-27T05:10:21.595Z,69.57
2022-11-27T05:12:48.262Z,83.28
2022-11-27T05:15:14.895Z,81.57
2022-11-27T05:17:43.713Z,81.63
2022-11-27T05:20:11.046Z,75.50
2022-11-27T05:22:37.764Z,67.80
2022-11-27T05:25:04.672Z,78.57
2022-11-27T05:27:31.335Z,78.45
2022-11-27T05:29:58.037Z,58.05
2022-11-27T05:32:24.958Z,59.60
2022-11-27T05:34:54.398Z,69.55
2022-11-27T05:37:23.543Z,57.17
2022-11-27T05:39:50.265Z,51.25
2022-11-27T05:42:16.921Z,48.25
2022-11-27T05:44:45.990Z,61.10
2022-11-27T05:47:14.806Z,48.67
2022-11-27T05:49:41.453Z,51.40
2022-11-27T05:52:08.093Z,54.33
2022-11-27T05:54:34.791Z,47.47
2022-11-27T05:57:01.509Z,62.33
2022-11-27T05:59:28.191Z,54.25
2022-11-27T06:02:00.225Z,52.45
2022-11-27T06:04:27.003Z,46.55
2022-11-27T06:06:53.612Z,46.83
2022-11-27T06:09:20.279Z,49.65
2022-11-27T06:11:49.096Z,53.72
2022-11-27T06:14:15.803Z,52.67
2022-11-27T06:16:42.565Z,55.25
2022-11-27T06:19:09.317Z,53.28
2022-11-27T06:21:36.440Z,44.83
2022-11-27T06:24:03.233Z,45.10
2022-11-27T06:26:32.974Z,42.97
2022-11-27T06:29:01.166Z,53.80
2022-11-27T06:31:33.274Z,50.88
2022-11-27T06:34:00.995Z,49.15
2022-11-27T06:36:31.749Z,51.90
2022-11-27T06:38:58.683Z,39.13
2022-11-27T06:41:27.204Z,53.92
2022-11-27T06:43:57.099Z,46.80
2022-11-27T06:46:24.340Z,46.28
2022-11-27T06:48:53.093Z,53.90
2022-11-27T06:51:25.696Z,40.83
2022-11-27T06:53:53.149Z,39.72
2022-11-27T06:56:24.850Z,53.50
2022-11-27T06:58:56.287Z,34.33
2022-11-27T07:01:27.054Z,44.42
2022-11-27T07:03:54.114Z,41.45
2022-11-27T07:06:22.670Z,43.20
2022-11-27T07:08:49.772Z,39.47
2022-11-27T07:11:22.033Z,42.22
2022-11-27T07:13:50.164Z,40.67
2022-11-27T07:16:20.137Z,44.42
2022-11-27T07:18:49.890Z,48.10
2022-11-27T07:21:17.271Z,41.53
2022-11-27T07:23:44.274Z,41.70
2022-11-27T07:26:17.027Z,38.47
2022-11-27T07:28:44.649Z,41.85
2022-11-27T07:31:13.318Z,46.13
2022-11-27T07:33:42.571Z,43.72
2022-11-27T07:36:12.883Z,45.50
2022-11-27T07:38:39.652Z,41.22
2022-11-27T07:41:06.914Z,47.95
2022-11-27T07:43:34.579Z,39.95
2022-11-27T07:46:10.861Z,35.90
2022-11-27T07:48:39.892Z,34.85
2022-11-27T07:51:08.295Z,35.97
2022-11-27T07:53:39.385Z,42.97
2022-11-27T07:56:07.817Z,45.13
2022-11-27T07:58:34.662Z,36.85
2022-11-27T08:01:01.655Z,34.95
2022-11-27T08:03:28.493Z,36.47
2022-11-27T08:05:55.207Z,36.42
2022-11-27T08:08:21.889Z,31.23
2022-11-27T08:10:48.646Z,34.03
2022-11-27T08:13:15.339Z,27.95
2022-11-27T08:15:42.419Z,34.00
2022-11-27T08:18:09.056Z,31.60
2022-11-27T08:20:37.005Z,26.58
2022-11-27T08:23:04.529Z,29.85
2022-11-27T08:25:31.896Z,28.83
2022-11-27T08:27:58.624Z,21.75
2022-11-27T08:30:25.480Z,27.70
2022-11-27T08:32:52.209Z,23.17
2022-11-27T08:35:19.034Z,26.83
2022-11-27T08:37:45.967Z,26.00
2022-11-27T08:40:12.734Z,27.67
2022-11-27T08:42:39.424Z,30.23
2022-11-27T08:45:06.617Z,24.83
2022-11-27T08:47:33.275Z,27.08
2022-11-27T08:49:59.945Z,26.58
2022-11-27T08:52:27.253Z,27.48
2022-11-27T08:54:57.490Z,33.00
2022-11-27T08:57:24.925Z,29.33
2022-11-27T08:59:51.824Z,27.98
2022-11-27T09:02:20.633Z,31.52
2022-11-27T09:04:47.332Z,31.52
2022-11-27T09:07:16.435Z,27.75
2022-11-27T09:09:43.583Z,29.15
2022-11-27T09:12:10.334Z,28.90
2022-11-27T09:14:39.495Z,29.45
2022-11-27T09:17:06.373Z,30.52
2022-11-27T09:19:33.048Z,28.60
2022-11-27T09:21:59.741Z,29.83
2022-11-27T09:24:26.465Z,26.35
2022-11-27T09:26:53.180Z,28.55
2022-11-27T09:29:22.158Z,32.17
2022-11-27T09:31:51.302Z,29.45
2022-11-27T09:34:20.578Z,28.85
2022-11-27T09:36:47.239Z,27.60
2022-11-27T09:39:16.910Z,28.95
2022-11-27T09:41:53.633Z,28.13
2022-11-27T09:44:23.442Z,25.23
2022-11-27T09:46:51.199Z,25.92
2022-11-27T09:49:24.892Z,22.65
2022-11-27T09:52:05.654Z,24.60
2022-11-27T09:54:46.740Z,24.58
2022-11-27T09:57:20.110Z,22.83
2022-11-27T09:59:52.152Z,22.45
2022-11-27T10:02:27.345Z,24.08
2022-11-27T10:05:13.045Z,24.02
2022-11-27T10:08:36.177Z,27.05
2022-11-27T10:11:08.835Z,29.95
2022-11-27T10:14:11.034Z,29.02
2022-11-27T10:16:44.847Z,28.55
2022-11-27T10:19:38.643Z,28.58
2022-11-27T10:22:23.148Z,26.33
2022-11-27T10:25:10.764Z,21.95
2022-11-27T10:27:49.255Z,27.35
2022-11-27T10:30:18.907Z,25.67
2022-11-27T10:32:56.676Z,28.23
2022-11-27T10:35:31.908Z,31.83
2022-11-27T10:38:06.345Z,28.35
2022-11-27T10:40:52.059Z,25.35
2022-11-27T10:43:22.935Z,24.90
2022-11-27T10:45:52.740Z,25.13
2022-11-27T10:48:20.078Z,25.50
2022-11-27T10:50:46.766Z,25.35
2022-11-27T10:53:16.182Z,28.30
2022-11-27T10:56:08.047Z,24.98
2022-11-27T10:58:57.616Z,27.15
2022-11-27T11:01:29.289Z,26.52
2022-11-27T11:04:35.907Z,29.33
2022-11-27T11:06:56.890Z,24.75
2022-11-27T11:09:30.142Z,23.45
2022-11-27T11:12:16.831Z,19.98
2022-11-27T11:14:58.967Z,22.02
2022-11-27T11:17:28.138Z,21.38
2022-11-27T11:19:56.232Z,21.08
2022-11-27T11:22:25.236Z,21.25
2022-11-27T11:24:53.629Z,20.73
2022-11-27T11:27:26.235Z,19.00
2022-11-27T11:29:59.895Z,20.80
2022-11-27T11:32:39.380Z,22.35
2022-11-27T11:35:24.450Z,23.10
2022-11-27T11:37:52.462Z,29.95
2022-11-27T11:40:25.842Z,30.80
2022-11-27T11:42:59.049Z,31.48
2022-11-27T11:45:32.298Z,28.48
2022-11-27T11:48:23.931Z,24.67
2022-11-27T11:51:11.760Z,27.20
2022-11-27T11:53:45.371Z,26.88
2022-11-27T11:56:32.830Z,28.77
2022-11-27T11:59:04.335Z,26.17
2022-11-27T12:01:56.284Z,23.15
2022-11-27T12:05:02.793Z,25.27
2022-11-27T12:07:40.787Z,24.20
2022-11-27T12:10:25.851Z,23.65
2022-11-27T12:12:58.451Z,27.20
2022-11-27T12:15:36.741Z,24.20
2022-11-27T12:18:28.177Z,22.90
2022-11-27T12:21:09.183Z,22.60
2022-11-27T12:23:38.609Z,20.77
2022-11-27T12:26:22.508Z,23.67
2022-11-27T12:29:24.480Z,23.77
2022-11-27T12:32:14.515Z,23.75
2022-11-27T12:34:46.955Z,22.58
2022-11-27T12:37:35.579Z,25.48
2022-11-27T12:40:25.846Z,22.90
2022-11-27T12:43:13.589Z,24.50
2022-11-27T12:45:51.332Z,23.63
2022-11-27T12:48:55.530Z,25.77
2022-11-27T12:51:34.224Z,30.65
2022-11-27T12:54:20.816Z,27.77
2022-11-27T12:56:52.230Z,28.13
2022-11-27T12:59:47.798Z,26.63
2022-11-27T13:02:23.837Z,26.60
2022-11-27T13:04:59.084Z,29.20
2022-11-27T13:08:01.074Z,27.50
2022-11-27T13:10:42.455Z,35.58
2022-11-27T13:13:34.119Z,27.35
2022-11-27T13:16:29.217Z,30.58
2022-11-27T13:19:19.832Z,28.38
2022-11-27T13:21:47.874Z,27.58
2022-11-27T13:24:15.236Z,29.35
2022-11-27T13:27:09.600Z,33.35
2022-11-27T13:29:48.285Z,35.05
2022-11-27T13:32:24.141Z,29.58
2022-11-27T13:34:53.116Z,28.00
2022-11-27T13:37:34.809Z,27.27
2022-11-27T13:40:16.674Z,27.08
2022-11-27T13:42:46.129Z,29.35
2022-11-27T13:45:24.518Z,31.27
2022-11-27T13:47:52.344Z,26.92
2022-11-27T13:50:23.125Z,26.88
2022-11-27T13:53:07.165Z,28.98
2022-11-27T13:55:41.098Z,24.98
2022-11-27T13:58:08.256Z,31.08
2022-11-27T14:00:45.650Z,28.60
2022-11-27T14:03:25.968Z,29.30
2022-11-27T14:05:55.415Z,28.02
2022-11-27T14:08:30.028Z,27.17
2022-11-27T14:10:56.655Z,27.75
2022-11-27T14:13:35.488Z,27.42
2022-11-27T14:16:20.050Z,30.02
2022-11-27T14:18:53.780Z,25.67
2022-11-27T14:21:39.301Z,30.95
2022-11-27T14:24:45.954Z,28.27
2022-11-27T14:27:21.727Z,24.95
2022-11-27T14:29:51.505Z,30.30
2022-11-27T14:32:20.231Z,27.45
2022-11-27T14:34:48.703Z,24.13
2022-11-27T14:37:27.451Z,26.48
2022-11-27T14:39:54.928Z,28.05
2022-11-27T14:42:29.312Z,26.92
2022-11-27T14:45:17.208Z,27.00
2022-11-27T14:47:54.611Z,24.30
2022-11-27T14:50:22.634Z,26.08
2022-11-27T14:52:57.293Z,23.92
2022-11-27T14:55:24.599Z,22.58
2022-11-27T14:57:53.916Z,23.70
2022-11-27T15:00:31.495Z,21.77
2022-11-27T15:03:09.372Z,21.52
2022-11-27T15:05:38.733Z,25.23
2022-11-27T15:08:10.574Z,21.92
2022-11-27T15:10:40.120Z,25.35
2022-11-27T15:13:20.912Z,22.77
2022-11-27T15:16:07.227Z,25.52
2022-11-27T15:18:37.589Z,27.08
2022-11-27T15:21:11.734Z,24.50
2022-11-27T15:23:45.606Z,26.25
2022-11-27T15:28:57.445Z,28.63
2022-11-27T15:31:27.124Z,25.98
2022-11-27T15:34:13.505Z,26.02
2022-11-27T15:37:06.324Z,29.55
2022-11-27T15:39:51.784Z,29.65
2022-11-27T15:42:19.966Z,31.33
2022-11-27T15:44:49.362Z,28.95
2022-11-27T15:47:36.070Z,29.50
2022-11-27T15:50:03.832Z,32.70
2022-11-27T15:52:30.645Z,32.05
2022-11-27T15:55:00.626Z,36.65
2022-11-27T15:57:27.289Z,38.67
2022-11-27T15:59:56.261Z,36.72
2022-11-27T16:02:23.450Z,37.15
2022-11-27T16:04:51.198Z,34.35
2022-11-27T16:07:20.070Z,36.42
2022-11-27T16:09:47.590Z,38.33
2022-11-27T16:12:14.379Z,36.20
2022-11-27T16:14:41.296Z,41.08
2022-11-27T16:17:08.169Z,39.13
2022-11-27T16:19:35.003Z,34.38
2022-11-27T16:22:01.722Z,37.10
2022-11-27T16:24:30.689Z,33.95
2022-11-27T16:26:59.610Z,39.40
2022-11-27T16:29:26.383Z,38.45
2022-11-27T16:31:53.313Z,42.90
2022-11-27T16:34:20.476Z,37.00
2022-11-27T16:36:49.306Z,40.55
2022-11-27T16:39:17.489Z,43.03
2022-11-27T16:41:44.179Z,42.72
2022-11-27T16:44:13.310Z,41.78
2022-11-27T16:46:41.084Z,39.88
2022-11-27T16:49:07.803Z,34.30
2022-11-27T16:51:37.121Z,40.92
2022-11-27T16:54:06.030Z,38.17
2022-11-27T16:56:34.357Z,39.00
2022-11-27T16:59:03.353Z,41.22
2022-11-27T17:01:34.653Z,41.05
2022-11-27T17:04:03.643Z,37.80
2022-11-27T17:06:33.327Z,44.85
2022-11-27T17:09:04.248Z,48.42
2022-11-27T17:11:33.940Z,49.38
2022-11-27T17:14:05.084Z,49.05
2022-11-27T17:16:31.991Z,47.20
2022-11-27T17:18:58.815Z,49.30
2022-11-27T17:21:28.836Z,46.80
2022-11-27T17:23:57.714Z,56.25
2022-11-27T17:26:28.598Z,50.30
2022-11-27T17:28:56.347Z,39.50
2022-11-27T17:31:33.626Z,56.55
2022-11-27T17:34:00.855Z,47.00
2022-11-27T17:36:33.753Z,50.83
2022-11-27T17:39:05.446Z,48.63
2022-11-27T17:41:34.589Z,48.63
2022-11-27T17:44:05.296Z,46.67
2022-11-27T17:46:33.290Z,47.85
2022-11-27T17:49:01.713Z,50.28
2022-11-27T17:51:31.397Z,50.78
2022-11-27T17:54:01.064Z,44.13
2022-11-27T17:56:28.739Z,48.17
2022-11-27T17:58:55.844Z,43.35
2022-11-27T18:01:29.043Z,48.03
2022-11-27T18:04:00.954Z,42.72
2022-11-27T18:06:30.885Z,41.88
2022-11-27T18:08:58.279Z,42.75
2022-11-27T18:11:29.980Z,45.22
2022-11-27T18:13:59.804Z,43.72
2022-11-27T18:16:38.015Z,40.88
2022-11-27T18:19:09.850Z,43.17
2022-11-27T18:21:39.504Z,43.30
2022-11-27T18:24:25.451Z,44.03
2022-11-27T18:27:11.528Z,47.15
2022-11-27T18:29:41.189Z,44.13
2022-11-27T18:32:08.771Z,51.55
2022-11-27T18:34:35.575Z,51.38
2022-11-27T18:37:02.803Z,47.42
2022-11-27T18:39:29.728Z,51.15
2022-11-27T18:41:56.446Z,46.33
2022-11-27T18:44:23.211Z,53.15
2022-11-27T18:46:50.654Z,58.50
2022-11-27T18:49:17.442Z,56.88
2022-11-27T18:51:44.921Z,62.38
2022-11-27T18:54:11.609Z,53.75
2022-11-27T18:56:38.389Z,61.30
2022-11-27T18:59:06.912Z,56.17
2022-11-27T19:01:41.456Z,51.70
2022-11-27T19:04:09.224Z,52.50
2022-11-27T19:06:37.085Z,51.65
2022-11-27T19:09:05.362Z,48.95
2022-11-27T19:11:32.650Z,52.75
2022-11-27T19:13:59.668Z,46.42
2022-11-27T19:16:29.792Z,43.67
2022-11-27T19:18:57.756Z,45.88
2022-11-27T19:21:26.958Z,42.53
2022-11-27T19:23:54.126Z,41.00
2022-11-27T19:26:23.759Z,39.17
2022-11-27T19:28:52.036Z,44.38
2022-11-27T19:31:19.767Z,38.25
2022-11-27T19:33:54.962Z,41.58
2022-11-27T19:36:24.430Z,47.30
2022-11-27T19:38:56.803Z,46.60
2022-11-27T19:41:26.873Z,41.38
2022-11-27T19:43:53.677Z,36.67
2022-11-27T19:46:23.519Z,41.08
2022-11-27T19:48:50.947Z,39.15
2022-11-27T19:51:17.623Z,46.05
2022-11-27T19:53:46.776Z,49.13
2022-11-27T19:56:13.566Z,43.47
2022-11-27T19:58:41.097Z,42.95
2022-11-27T20:01:14.259Z,41.20
2022-11-27T20:03:41.986Z,45.03
2022-11-27T20:06:16.844Z,39.83
2022-11-27T20:08:45.135Z,37.63
2022-11-27T20:11:14.436Z,35.65
2022-11-27T20:13:41.173Z,36.05
2022-11-27T20:16:13.593Z,41.15
2022-11-27T20:18:43.395Z,34.60
2022-11-27T20:21:14.652Z,40.35
2022-11-27T20:23:44.455Z,37.20
2022-11-27T20:26:14.757Z,35.00
2022-11-27T20:28:42.079Z,36.53
2022-11-27T20:31:14.755Z,37.25
2022-11-27T20:33:41.552Z,36.72
2022-11-27T20:36:17.322Z,34.38
2022-11-27T20:38:45.166Z,33.17
2022-11-27T20:41:15.078Z,36.47
2022-11-27T20:43:42.952Z,37.97
2022-11-27T20:46:12.883Z,36.13
2022-11-27T20:48:42.392Z,38.65
2022-11-27T20:51:16.212Z,37.85
2022-11-27T20:56:12.073Z,44.80
2022-11-27T20:58:40.804Z,46.13
2022-11-27T21:01:23.146Z,44.22
2022-11-27T21:03:51.513Z,48.20
2022-11-27T21:06:24.575Z,46.38
2022-11-27T21:08:51.922Z,42.83
2022-11-27T21:11:27.784Z,40.78
2022-11-27T21:13:59.205Z,44.65
2022-11-27T21:16:34.072Z,43.13
2022-11-27T21:19:03.571Z,38.85
2022-11-27T21:21:31.130Z,39.13
2022-11-27T21:24:00.629Z,38.80
2022-11-27T21:26:27.667Z,35.95
2022-11-27T21:28:54.432Z,46.67
2022-11-27T21:31:25.909Z,36.95
2022-11-27T21:33:55.236Z,34.88
2022-11-27T21:36:24.970Z,39.08
2022-11-27T21:38:51.754Z,33.38
2022-11-27T21:41:21.589Z,40.65
2022-11-27T21:43:49.563Z,39.92
2022-11-27T21:46:18.720Z,38.38
2022-11-27T21:48:49.693Z,38.83
2022-11-27T21:51:17.272Z,35.38
2022-11-27T21:53:45.153Z,43.13
2022-11-27T21:56:16.163Z,34.50
2022-11-27T21:58:42.913Z,37.95
2022-11-27T22:01:13.104Z,41.63
2022-11-27T22:03:43.121Z,34.38
2022-11-27T22:06:18.119Z,32.20
2022-11-27T22:08:47.605Z,34.03
2022-11-27T22:11:17.644Z,33.15
2022-11-27T22:13:44.671Z,31.92
2022-11-27T22:16:17.356Z,32.72
2022-11-27T22:18:44.660Z,30.13
2022-11-27T22:21:12.785Z,27.67
2022-11-27T22:23:40.143Z,29.92
2022-11-27T22:26:09.872Z,27.42
2022-11-27T22:28:40.280Z,28.55
2022-11-27T22:31:16.312Z,27.23
2022-11-27T22:33:43.915Z,25.75
2022-11-27T22:36:20.836Z,27.77
2022-11-27T22:38:49.707Z,25.50
2022-11-27T22:41:16.612Z,22.83
2022-11-27T22:43:45.934Z,26.85
2022-11-27T22:46:36.625Z,24.45
2022-11-27T22:49:06.310Z,25.33
2022-11-27T22:51:35.323Z,27.00
2022-11-27T22:54:03.552Z,23.02
2022-11-27T22:56:30.409Z,24.25
2022-11-27T22:59:30.516Z,23.65
2022-11-27T23:01:48.883Z,20.40
2022-11-27T23:04:15.623Z,20.95
2022-11-27T23:06:48.588Z,22.17
2022-11-27T23:09:20.465Z,19.23
2022-11-27T23:11:47.714Z,19.70
2022-11-27T23:14:14.386Z,21.23
2022-11-27T23:16:41.349Z,18.00
2022-11-27T23:19:08.661Z,22.40
2022-11-27T23:21:38.529Z,21.85
2022-11-27T23:24:06.823Z,19.77
2022-11-27T23:26:35.983Z,18.27
2022-11-27T23:29:03.473Z,24.73
2022-11-27T23:31:35.525Z,18.05
2022-11-27T23:34:13.386Z,16.63
2022-11-27T23:36:40.424Z,17.27
2022-11-27T23:39:12.538Z,18.45
2022-11-27T23:41:40.466Z,18.13
2022-11-27T23:44:07.716Z,21.08
2022-11-27T23:46:36.617Z,16.63
2022-11-27T23:49:03.426Z,16.88
2022-11-27T23:51:32.145Z,17.70
2022-11-27T23:54:01.570Z,17.05
2022-11-27T23:56:31.658Z,19.73
2022-11-27T23:58:58.925Z,17.23
